sensor_id;sensor_type;location;lat;lon;timestamp;P1;durP1;ratioP1;P2;durP2;ratioP2
5191;SDS011;2615;44.524;11.284;2023-12-28T00:01:11;11.00;;;8.63;;
5191;SDS011;2615;44.524;11.284;2023-12-28T00:03:40;14.20;;;9.10;;
5191;SDS011;2615;44.524;11.284;2023-12-28T00:06:08;13.57;;;8.20;;
5191;SDS011;2615;44.524;11.284;2023-12-28T00:08:36;13.80;;;8.50;;
5191;SDS011;2615;44.524;11.284;2023-12-28T00:11:04;15.60;;;8.70;;
5191;SDS011;2615;44.524;11.284;2023-12-28T00:13:34;13.87;;;9.20;;
5191;SDS011;2615;44.524;11.284;2023-12-28T00:16:03;18.33;;;9.83;;
5191;SDS011;2615;44.524;11.284;2023-12-28T00:18:31;15.27;;;10.67;;
5191;SDS011;2615;44.524;11.284;2023-12-28T00:20:59;14.67;;;9.90;;
5191;SDS011;2615;44.524;11.284;2023-12-28T00:23:28;20.93;;;11.13;;
5191;SDS011;2615;44.524;11.284;2023-12-28T00:25:56;20.30;;;12.90;;
5191;SDS011;2615;44.524;11.284;2023-12-28T00:28:24;15.67;;;11.00;;
5191;SDS011;2615;44.524;11.284;2023-12-28T00:30:54;19.33;;;12.20;;
5191;SDS011;2615;44.524;11.284;2023-12-28T00:33:22;18.10;;;12.40;;
5191;SDS011;2615;44.524;11.284;2023-12-28T00:35:50;16.93;;;12.30;;
5191;SDS011;2615;44.524;11.284;2023-12-28T00:38:18;20.03;;;13.60;;
5191;SDS011;2615;44.524;11.284;2023-12-28T00:40:46;21.67;;;14.07;;
5191;SDS011;2615;44.524;11.284;2023-12-28T00:43:15;13.13;;;11.70;;
5191;SDS011;2615;44.524;11.284;2023-12-28T00:45:43;20.00;;;12.53;;
5191;SDS011;2615;44.524;11.284;2023-12-28T00:48:12;14.77;;;10.40;;
5191;SDS011;2615;44.524;11.284;2023-12-28T00:50:41;24.97;;;10.93;;
5191;SDS011;2615;44.524;11.284;2023-12-28T00:53:09;18.97;;;10.73;;
5191;SDS011;2615;44.524;11.284;2023-12-28T00:55:37;16.83;;;11.57;;
5191;SDS011;2615;44.524;11.284;2023-12-28T00:58:05;13.20;;;9.70;;
5191;SDS011;2615;44.524;11.284;2023-12-28T01:00:33;16.73;;;10.23;;
5191;SDS011;2615;44.524;11.284;2023-12-28T01:03:02;13.30;;;10.50;;
5191;SDS011;2615;44.524;11.284;2023-12-28T01:05:31;16.30;;;12.23;;
5191;SDS011;2615;44.524;11.284;2023-12-28T01:08:00;16.40;;;10.80;;
5191;SDS011;2615;44.524;11.284;2023-12-28T01:10:28;16.00;;;10.67;;
5191;SDS011;2615;44.524;11.284;2023-12-28T01:12:56;14.07;;;10.97;;
5191;SDS011;2615;44.524;11.284;2023-12-28T01:15:25;15.97;;;10.17;;
5191;SDS011;2615;44.524;11.284;2023-12-28T01:17:53;14.50;;;10.07;;
5191;SDS011;2615;44.524;11.284;2023-12-28T01:20:21;12.87;;;10.20;;
5191;SDS011;2615;44.524;11.284;2023-12-28T01:22:51;18.93;;;11.97;;
5191;SDS011;2615;44.524;11.284;2023-12-28T01:25:19;16.17;;;9.77;;
5191;SDS011;2615;44.524;11.284;2023-12-28T01:27:47;20.93;;;10.17;;
5191;SDS011;2615;44.524;11.284;2023-12-28T01:30:15;17.30;;;10.60;;
5191;SDS011;2615;44.524;11.284;2023-12-28T01:32:44;15.90;;;11.27;;
5191;SDS011;2615;44.524;11.284;2023-12-28T01:35:12;21.03;;;10.70;;
5191;SDS011;2615;44.524;11.284;2023-12-28T01:37:40;17.73;;;10.13;;
5191;SDS011;2615;44.524;11.284;2023-12-28T01:40:10;15.97;;;10.90;;
5191;SDS011;2615;44.524;11.284;2023-12-28T01:42:38;13.43;;;9.13;;
5191;SDS011;2615;44.524;11.284;2023-12-28T01:45:07;18.93;;;11.17;;
5191;SDS011;2615;44.524;11.284;2023-12-28T01:47:35;20.27;;;10.87;;
5191;SDS011;2615;44.524;11.284;2023-12-28T01:50:04;16.73;;;9.60;;
5191;SDS011;2615;44.524;11.284;2023-12-28T01:52:34;14.10;;;8.70;;
5191;SDS011;2615;44.524;11.284;2023-12-28T01:55:02;16.60;;;8.60;;
5191;SDS011;2615;44.524;11.284;2023-12-28T01:57:33;17.50;;;9.97;;
5191;SDS011;2615;44.524;11.284;2023-12-28T02:00:02;20.17;;;9.47;;
5191;SDS011;2615;44.524;11.284;2023-12-28T02:02:30;13.93;;;9.90;;
5191;SDS011;2615;44.524;11.284;2023-12-28T02:04:59;12.90;;;8.20;;
5191;SDS011;2615;44.524;11.284;2023-12-28T02:07:28;17.00;;;8.00;;
5191;SDS011;2615;44.524;11.284;2023-12-28T02:09:57;13.77;;;7.57;;
5191;SDS011;2615;44.524;11.284;2023-12-28T02:12:25;12.23;;;7.70;;
5191;SDS011;2615;44.524;11.284;2023-12-28T02:14:55;10.97;;;7.63;;
5191;SDS011;2615;44.524;11.284;2023-12-28T02:17:26;10.40;;;7.73;;
5191;SDS011;2615;44.524;11.284;2023-12-28T02:20:00;10.57;;;7.87;;
5191;SDS011;2615;44.524;11.284;2023-12-28T02:22:31;14.10;;;7.30;;
5191;SDS011;2615;44.524;11.284;2023-12-28T02:25:04;7.53;;;6.20;;
5191;SDS011;2615;44.524;11.284;2023-12-28T02:27:32;13.27;;;6.80;;
5191;SDS011;2615;44.524;11.284;2023-12-28T02:30:02;12.40;;;7.30;;
5191;SDS011;2615;44.524;11.284;2023-12-28T02:32:39;10.03;;;6.83;;
5191;SDS011;2615;44.524;11.284;2023-12-28T02:35:16;14.47;;;8.80;;
5191;SDS011;2615;44.524;11.284;2023-12-28T02:37:47;14.67;;;8.23;;
5191;SDS011;2615;44.524;11.284;2023-12-28T02:40:20;9.70;;;7.07;;
5191;SDS011;2615;44.524;11.284;2023-12-28T02:42:49;13.20;;;8.33;;
5191;SDS011;2615;44.524;11.284;2023-12-28T02:45:19;12.73;;;7.30;;
5191;SDS011;2615;44.524;11.284;2023-12-28T02:47:47;13.63;;;7.27;;
5191;SDS011;2615;44.524;11.284;2023-12-28T02:50:15;12.57;;;7.20;;
5191;SDS011;2615;44.524;11.284;2023-12-28T02:52:43;11.97;;;7.80;;
5191;SDS011;2615;44.524;11.284;2023-12-28T02:55:12;8.87;;;7.00;;
5191;SDS011;2615;44.524;11.284;2023-12-28T02:57:42;13.83;;;9.27;;
5191;SDS011;2615;44.524;11.284;2023-12-28T03:00:12;10.40;;;7.03;;
5191;SDS011;2615;44.524;11.284;2023-12-28T03:02:41;12.07;;;6.97;;
5191;SDS011;2615;44.524;11.284;2023-12-28T03:05:09;12.40;;;7.60;;
5191;SDS011;2615;44.524;11.284;2023-12-28T03:07:37;15.13;;;8.40;;
5191;SDS011;2615;44.524;11.284;2023-12-28T03:10:07;11.77;;;7.47;;
5191;SDS011;2615;44.524;11.284;2023-12-28T03:12:39;14.23;;;8.43;;
5191;SDS011;2615;44.524;11.284;2023-12-28T03:15:09;9.40;;;7.90;;
5191;SDS011;2615;44.524;11.284;2023-12-28T03:17:37;12.63;;;9.20;;
5191;SDS011;2615;44.524;11.284;2023-12-28T03:20:06;11.53;;;9.07;;
5191;SDS011;2615;44.524;11.284;2023-12-28T03:22:35;15.73;;;9.63;;
5191;SDS011;2615;44.524;11.284;2023-12-28T03:25:04;14.23;;;7.87;;
5191;SDS011;2615;44.524;11.284;2023-12-28T03:27:32;13.90;;;8.60;;
5191;SDS011;2615;44.524;11.284;2023-12-28T03:30:01;14.30;;;10.27;;
5191;SDS011;2615;44.524;11.284;2023-12-28T03:32:30;13.10;;;8.90;;
5191;SDS011;2615;44.524;11.284;2023-12-28T03:34:58;11.10;;;8.93;;
5191;SDS011;2615;44.524;11.284;2023-12-28T03:37:26;12.40;;;7.90;;
5191;SDS011;2615;44.524;11.284;2023-12-28T03:39:54;12.00;;;8.20;;
5191;SDS011;2615;44.524;11.284;2023-12-28T03:42:23;18.10;;;10.47;;
5191;SDS011;2615;44.524;11.284;2023-12-28T03:44:51;13.10;;;8.07;;
5191;SDS011;2615;44.524;11.284;2023-12-28T03:47:19;12.60;;;7.70;;
5191;SDS011;2615;44.524;11.284;2023-12-28T03:49:48;15.13;;;8.60;;
5191;SDS011;2615;44.524;11.284;2023-12-28T03:52:17;12.87;;;8.07;;
5191;SDS011;2615;44.524;11.284;2023-12-28T03:54:45;12.30;;;7.40;;
5191;SDS011;2615;44.524;11.284;2023-12-28T03:57:13;9.17;;;6.80;;
5191;SDS011;2615;44.524;11.284;2023-12-28T03:59:41;9.50;;;6.40;;
5191;SDS011;2615;44.524;11.284;2023-12-28T04:02:10;8.17;;;6.03;;
5191;SDS011;2615;44.524;11.284;2023-12-28T04:04:38;10.57;;;7.23;;
5191;SDS011;2615;44.524;11.284;2023-12-28T04:07:07;10.03;;;6.50;;
5191;SDS011;2615;44.524;11.284;2023-12-28T04:09:36;14.27;;;8.30;;
5191;SDS011;2615;44.524;11.284;2023-12-28T04:12:04;14.30;;;6.90;;
5191;SDS011;2615;44.524;11.284;2023-12-28T04:14:33;9.00;;;5.83;;
5191;SDS011;2615;44.524;11.284;2023-12-28T04:17:02;11.00;;;6.63;;
5191;SDS011;2615;44.524;11.284;2023-12-28T04:19:31;13.40;;;5.63;;
5191;SDS011;2615;44.524;11.284;2023-12-28T04:21:59;7.97;;;6.10;;
5191;SDS011;2615;44.524;11.284;2023-12-28T04:24:28;8.03;;;6.27;;
5191;SDS011;2615;44.524;11.284;2023-12-28T04:26:56;9.50;;;6.90;;
5191;SDS011;2615;44.524;11.284;2023-12-28T04:29:24;10.43;;;6.47;;
5191;SDS011;2615;44.524;11.284;2023-12-28T04:31:53;10.87;;;6.43;;
5191;SDS011;2615;44.524;11.284;2023-12-28T04:34:21;7.50;;;5.53;;
5191;SDS011;2615;44.524;11.284;2023-12-28T04:36:49;7.77;;;6.17;;
5191;SDS011;2615;44.524;11.284;2023-12-28T04:39:19;12.10;;;5.30;;
5191;SDS011;2615;44.524;11.284;2023-12-28T04:41:48;10.07;;;6.10;;
5191;SDS011;2615;44.524;11.284;2023-12-28T04:44:16;16.83;;;6.23;;
5191;SDS011;2615;44.524;11.284;2023-12-28T04:46:44;9.27;;;5.40;;
5191;SDS011;2615;44.524;11.284;2023-12-28T04:49:13;9.53;;;5.40;;
5191;SDS011;2615;44.524;11.284;2023-12-28T04:51:44;7.73;;;5.20;;
5191;SDS011;2615;44.524;11.284;2023-12-28T04:54:12;15.03;;;6.20;;
5191;SDS011;2615;44.524;11.284;2023-12-28T04:56:40;7.07;;;5.53;;
5191;SDS011;2615;44.524;11.284;2023-12-28T04:59:10;13.43;;;6.20;;
5191;SDS011;2615;44.524;11.284;2023-12-28T05:01:40;8.13;;;5.57;;
5191;SDS011;2615;44.524;11.284;2023-12-28T05:04:09;8.80;;;5.70;;
5191;SDS011;2615;44.524;11.284;2023-12-28T05:06:43;7.83;;;6.03;;
5191;SDS011;2615;44.524;11.284;2023-12-28T05:09:11;10.00;;;5.60;;
5191;SDS011;2615;44.524;11.284;2023-12-28T05:11:39;10.63;;;5.80;;
5191;SDS011;2615;44.524;11.284;2023-12-28T05:14:07;8.20;;;5.93;;
5191;SDS011;2615;44.524;11.284;2023-12-28T05:16:37;10.30;;;6.00;;
5191;SDS011;2615;44.524;11.284;2023-12-28T05:19:05;7.90;;;5.33;;
5191;SDS011;2615;44.524;11.284;2023-12-28T05:21:33;8.73;;;6.10;;
5191;SDS011;2615;44.524;11.284;2023-12-28T05:24:02;9.37;;;6.00;;
5191;SDS011;2615;44.524;11.284;2023-12-28T05:26:30;10.47;;;5.67;;
5191;SDS011;2615;44.524;11.284;2023-12-28T05:28:59;12.37;;;6.70;;
5191;SDS011;2615;44.524;11.284;2023-12-28T05:31:28;9.80;;;7.33;;
5191;SDS011;2615;44.524;11.284;2023-12-28T05:33:57;10.60;;;6.07;;
5191;SDS011;2615;44.524;11.284;2023-12-28T05:36:25;10.40;;;5.10;;
5191;SDS011;2615;44.524;11.284;2023-12-28T05:38:53;11.13;;;5.30;;
5191;SDS011;2615;44.524;11.284;2023-12-28T05:41:22;10.97;;;6.53;;
5191;SDS011;2615;44.524;11.284;2023-12-28T05:43:50;11.87;;;6.87;;
5191;SDS011;2615;44.524;11.284;2023-12-28T05:46:18;9.77;;;6.87;;
5191;SDS011;2615;44.524;11.284;2023-12-28T05:48:47;9.53;;;5.93;;
5191;SDS011;2615;44.524;11.284;2023-12-28T05:51:15;11.27;;;6.93;;
5191;SDS011;2615;44.524;11.284;2023-12-28T05:53:44;10.80;;;7.30;;
5191;SDS011;2615;44.524;11.284;2023-12-28T05:56:12;14.07;;;7.67;;
5191;SDS011;2615;44.524;11.284;2023-12-28T05:58:41;9.30;;;6.43;;
5191;SDS011;2615;44.524;11.284;2023-12-28T06:01:09;7.53;;;5.73;;
5191;SDS011;2615;44.524;11.284;2023-12-28T06:03:37;11.63;;;6.90;;
5191;SDS011;2615;44.524;11.284;2023-12-28T06:06:07;10.57;;;7.20;;
5191;SDS011;2615;44.524;11.284;2023-12-28T06:08:35;19.97;;;6.37;;
5191;SDS011;2615;44.524;11.284;2023-12-28T06:11:03;8.43;;;6.70;;
5191;SDS011;2615;44.524;11.284;2023-12-28T06:13:32;9.00;;;6.00;;
5191;SDS011;2615;44.524;11.284;2023-12-28T06:16:00;9.87;;;6.80;;
5191;SDS011;2615;44.524;11.284;2023-12-28T06:18:28;25.10;;;8.80;;
5191;SDS011;2615;44.524;11.284;2023-12-28T06:20:57;9.77;;;6.40;;
5191;SDS011;2615;44.524;11.284;2023-12-28T06:23:27;11.67;;;6.43;;
5191;SDS011;2615;44.524;11.284;2023-12-28T06:25:55;7.43;;;5.93;;
5191;SDS011;2615;44.524;11.284;2023-12-28T06:28:23;14.17;;;6.60;;
5191;SDS011;2615;44.524;11.284;2023-12-28T06:30:51;13.30;;;7.27;;
5191;SDS011;2615;44.524;11.284;2023-12-28T06:33:20;8.00;;;6.73;;
5191;SDS011;2615;44.524;11.284;2023-12-28T06:35:48;9.60;;;6.90;;
5191;SDS011;2615;44.524;11.284;2023-12-28T06:38:16;11.80;;;6.30;;
5191;SDS011;2615;44.524;11.284;2023-12-28T06:40:45;28.60;;;8.40;;
5191;SDS011;2615;44.524;11.284;2023-12-28T06:43:14;10.70;;;6.93;;
5191;SDS011;2615;44.524;11.284;2023-12-28T06:45:42;10.57;;;6.93;;
5191;SDS011;2615;44.524;11.284;2023-12-28T06:48:10;16.27;;;6.97;;
5191;SDS011;2615;44.524;11.284;2023-12-28T06:50:39;10.80;;;6.70;;
5191;SDS011;2615;44.524;11.284;2023-12-28T06:53:07;15.53;;;8.43;;
5191;SDS011;2615;44.524;11.284;2023-12-28T06:55:35;10.90;;;6.67;;
5191;SDS011;2615;44.524;11.284;2023-12-28T06:58:04;11.73;;;6.37;;
5191;SDS011;2615;44.524;11.284;2023-12-28T07:00:34;16.13;;;6.97;;
5191;SDS011;2615;44.524;11.284;2023-12-28T07:03:02;13.90;;;7.90;;
5191;SDS011;2615;44.524;11.284;2023-12-28T07:05:30;10.73;;;7.10;;
5191;SDS011;2615;44.524;11.284;2023-12-28T07:07:59;10.83;;;6.70;;
5191;SDS011;2615;44.524;11.284;2023-12-28T07:10:27;16.20;;;6.10;;
5191;SDS011;2615;44.524;11.284;2023-12-28T07:12:55;12.13;;;6.63;;
5191;SDS011;2615;44.524;11.284;2023-12-28T07:15:25;10.53;;;6.40;;
5191;SDS011;2615;44.524;11.284;2023-12-28T07:17:53;10.63;;;6.90;;
5191;SDS011;2615;44.524;11.284;2023-12-28T07:20:21;17.63;;;9.47;;
5191;SDS011;2615;44.524;11.284;2023-12-28T07:22:49;8.87;;;6.40;;
5191;SDS011;2615;44.524;11.284;2023-12-28T07:25:20;8.70;;;6.00;;
5191;SDS011;2615;44.524;11.284;2023-12-28T07:27:48;10.30;;;6.20;;
5191;SDS011;2615;44.524;11.284;2023-12-28T07:30:17;9.00;;;6.77;;
5191;SDS011;2615;44.524;11.284;2023-12-28T07:32:46;12.00;;;7.80;;
5191;SDS011;2615;44.524;11.284;2023-12-28T07:35:15;13.53;;;6.57;;
5191;SDS011;2615;44.524;11.284;2023-12-28T07:37:43;28.30;;;8.37;;
5191;SDS011;2615;44.524;11.284;2023-12-28T07:40:12;13.93;;;7.40;;
5191;SDS011;2615;44.524;11.284;2023-12-28T07:42:41;8.30;;;6.70;;
5191;SDS011;2615;44.524;11.284;2023-12-28T07:45:09;12.07;;;7.83;;
5191;SDS011;2615;44.524;11.284;2023-12-28T07:47:37;19.07;;;7.50;;
5191;SDS011;2615;44.524;11.284;2023-12-28T07:50:07;11.30;;;7.30;;
5191;SDS011;2615;44.524;11.284;2023-12-28T07:52:37;18.27;;;8.13;;
5191;SDS011;2615;44.524;11.284;2023-12-28T07:55:05;20.60;;;9.60;;
5191;SDS011;2615;44.524;11.284;2023-12-28T07:57:33;14.40;;;6.63;;
5191;SDS011;2615;44.524;11.284;2023-12-28T08:00:03;13.50;;;7.90;;
5191;SDS011;2615;44.524;11.284;2023-12-28T08:02:33;10.47;;;6.30;;
5191;SDS011;2615;44.524;11.284;2023-12-28T08:05:01;9.90;;;6.50;;
5191;SDS011;2615;44.524;11.284;2023-12-28T08:07:31;11.47;;;7.93;;
5191;SDS011;2615;44.524;11.284;2023-12-28T08:09:59;10.13;;;6.97;;
5191;SDS011;2615;44.524;11.284;2023-12-28T08:12:28;12.80;;;6.70;;
5191;SDS011;2615;44.524;11.284;2023-12-28T08:14:56;11.80;;;8.10;;
5191;SDS011;2615;44.524;11.284;2023-12-28T08:17:24;14.20;;;6.83;;
5191;SDS011;2615;44.524;11.284;2023-12-28T08:19:52;11.17;;;7.50;;
5191;SDS011;2615;44.524;11.284;2023-12-28T08:22:22;12.33;;;8.13;;
5191;SDS011;2615;44.524;11.284;2023-12-28T08:24:52;15.67;;;9.20;;
5191;SDS011;2615;44.524;11.284;2023-12-28T08:27:26;17.17;;;9.50;;
5191;SDS011;2615;44.524;11.284;2023-12-28T08:30:01;15.97;;;9.83;;
5191;SDS011;2615;44.524;11.284;2023-12-28T08:32:31;18.20;;;9.90;;
5191;SDS011;2615;44.524;11.284;2023-12-28T08:35:05;19.40;;;10.00;;
5191;SDS011;2615;44.524;11.284;2023-12-28T08:37:38;13.33;;;8.20;;
5191;SDS011;2615;44.524;11.284;2023-12-28T08:40:13;14.63;;;8.43;;
5191;SDS011;2615;44.524;11.284;2023-12-28T08:42:54;15.83;;;10.10;;
5191;SDS011;2615;44.524;11.284;2023-12-28T08:45:24;16.50;;;9.83;;
5191;SDS011;2615;44.524;11.284;2023-12-28T08:47:54;14.00;;;9.90;;
5191;SDS011;2615;44.524;11.284;2023-12-28T08:50:29;16.70;;;10.30;;
5191;SDS011;2615;44.524;11.284;2023-12-28T08:53:00;14.13;;;10.20;;
5191;SDS011;2615;44.524;11.284;2023-12-28T08:55:35;17.03;;;10.67;;
5191;SDS011;2615;44.524;11.284;2023-12-28T08:58:05;18.73;;;10.93;;
5191;SDS011;2615;44.524;11.284;2023-12-28T09:00:35;18.53;;;11.13;;
5191;SDS011;2615;44.524;11.284;2023-12-28T09:03:13;18.57;;;11.23;;
5191;SDS011;2615;44.524;11.284;2023-12-28T09:05:50;16.47;;;11.60;;
5191;SDS011;2615;44.524;11.284;2023-12-28T09:08:20;20.33;;;12.60;;
5191;SDS011;2615;44.524;11.284;2023-12-28T09:10:57;20.87;;;10.57;;
5191;SDS011;2615;44.524;11.284;2023-12-28T09:13:27;21.80;;;13.43;;
5191;SDS011;2615;44.524;11.284;2023-12-28T09:15:58;22.80;;;13.67;;
5191;SDS011;2615;44.524;11.284;2023-12-28T09:18:35;23.00;;;14.97;;
5191;SDS011;2615;44.524;11.284;2023-12-28T09:21:09;26.57;;;17.13;;
5191;SDS011;2615;44.524;11.284;2023-12-28T09:23:40;36.80;;;19.87;;
5191;SDS011;2615;44.524;11.284;2023-12-28T09:26:14;31.57;;;21.80;;
5191;SDS011;2615;44.524;11.284;2023-12-28T09:28:44;45.23;;;21.60;;
5191;SDS011;2615;44.524;11.284;2023-12-28T09:31:13;32.93;;;21.53;;
5191;SDS011;2615;44.524;11.284;2023-12-28T09:33:42;33.80;;;22.73;;
5191;SDS011;2615;44.524;11.284;2023-12-28T09:36:11;28.43;;;21.80;;
5191;SDS011;2615;44.524;11.284;2023-12-28T09:38:39;31.80;;;22.00;;
5191;SDS011;2615;44.524;11.284;2023-12-28T09:41:09;39.90;;;25.60;;
5191;SDS011;2615;44.524;11.284;2023-12-28T09:43:44;45.90;;;22.30;;
5191;SDS011;2615;44.524;11.284;2023-12-28T09:46:20;35.53;;;23.00;;
5191;SDS011;2615;44.524;11.284;2023-12-28T09:48:48;44.97;;;26.40;;
5191;SDS011;2615;44.524;11.284;2023-12-28T09:51:21;44.77;;;30.17;;
5191;SDS011;2615;44.524;11.284;2023-12-28T09:53:51;40.90;;;28.67;;
5191;SDS011;2615;44.524;11.284;2023-12-28T09:56:22;45.67;;;28.70;;
5191;SDS011;2615;44.524;11.284;2023-12-28T09:58:56;51.77;;;33.37;;
5191;SDS011;2615;44.524;11.284;2023-12-28T10:01:24;50.93;;;32.93;;
5191;SDS011;2615;44.524;11.284;2023-12-28T10:03:53;56.37;;;37.77;;
5191;SDS011;2615;44.524;11.284;2023-12-28T10:06:21;52.40;;;33.70;;
5191;SDS011;2615;44.524;11.284;2023-12-28T10:08:50;58.10;;;35.93;;
5191;SDS011;2615;44.524;11.284;2023-12-28T10:11:18;53.87;;;35.60;;
5191;SDS011;2615;44.524;11.284;2023-12-28T10:13:47;56.57;;;32.87;;
5191;SDS011;2615;44.524;11.284;2023-12-28T10:16:17;46.97;;;32.17;;
5191;SDS011;2615;44.524;11.284;2023-12-28T10:18:45;50.83;;;34.00;;
5191;SDS011;2615;44.524;11.284;2023-12-28T10:21:14;49.03;;;32.77;;
5191;SDS011;2615;44.524;11.284;2023-12-28T10:23:42;56.83;;;31.17;;
5191;SDS011;2615;44.524;11.284;2023-12-28T10:26:11;50.00;;;30.87;;
5191;SDS011;2615;44.524;11.284;2023-12-28T10:28:39;48.70;;;32.17;;
5191;SDS011;2615;44.524;11.284;2023-12-28T10:31:09;45.60;;;29.60;;
5191;SDS011;2615;44.524;11.284;2023-12-28T10:33:40;43.50;;;28.90;;
5191;SDS011;2615;44.524;11.284;2023-12-28T10:36:12;47.47;;;30.60;;
5191;SDS011;2615;44.524;11.284;2023-12-28T10:38:43;39.10;;;28.13;;
5191;SDS011;2615;44.524;11.284;2023-12-28T10:41:12;40.23;;;27.83;;
5191;SDS011;2615;44.524;11.284;2023-12-28T10:43:45;39.30;;;26.30;;
5191;SDS011;2615;44.524;11.284;2023-12-28T10:46:19;46.57;;;30.17;;
5191;SDS011;2615;44.524;11.284;2023-12-28T10:48:57;44.97;;;27.33;;
5191;SDS011;2615;44.524;11.284;2023-12-28T10:51:27;40.37;;;28.73;;
5191;SDS011;2615;44.524;11.284;2023-12-28T10:53:59;32.87;;;25.67;;
5191;SDS011;2615;44.524;11.284;2023-12-28T10:56:33;41.87;;;25.07;;
5191;SDS011;2615;44.524;11.284;2023-12-28T10:59:06;37.90;;;25.73;;
5191;SDS011;2615;44.524;11.284;2023-12-28T11:01:43;36.73;;;26.83;;
5191;SDS011;2615;44.524;11.284;2023-12-28T11:04:21;36.10;;;25.87;;
5191;SDS011;2615;44.524;11.284;2023-12-28T11:06:54;38.70;;;24.80;;
5191;SDS011;2615;44.524;11.284;2023-12-28T11:09:25;39.50;;;25.90;;
5191;SDS011;2615;44.524;11.284;2023-12-28T11:11:57;36.83;;;25.77;;
5191;SDS011;2615;44.524;11.284;2023-12-28T11:14:27;42.23;;;28.77;;
5191;SDS011;2615;44.524;11.284;2023-12-28T11:16:55;51.17;;;28.37;;
5191;SDS011;2615;44.524;11.284;2023-12-28T11:19:27;43.40;;;27.40;;
5191;SDS011;2615;44.524;11.284;2023-12-28T11:21:57;38.73;;;27.23;;
5191;SDS011;2615;44.524;11.284;2023-12-28T11:24:27;35.73;;;24.20;;
5191;SDS011;2615;44.524;11.284;2023-12-28T11:26:56;35.10;;;22.97;;
5191;SDS011;2615;44.524;11.284;2023-12-28T11:29:24;31.83;;;22.00;;
5191;SDS011;2615;44.524;11.284;2023-12-28T11:31:52;40.37;;;23.17;;
5191;SDS011;2615;44.524;11.284;2023-12-28T11:34:24;36.80;;;22.87;;
5191;SDS011;2615;44.524;11.284;2023-12-28T11:36:55;34.00;;;24.63;;
5191;SDS011;2615;44.524;11.284;2023-12-28T11:39:29;35.50;;;25.07;;
5191;SDS011;2615;44.524;11.284;2023-12-28T11:42:00;42.20;;;27.90;;
5191;SDS011;2615;44.524;11.284;2023-12-28T11:44:30;43.83;;;28.40;;
5191;SDS011;2615;44.524;11.284;2023-12-28T11:46:59;44.13;;;28.47;;
5191;SDS011;2615;44.524;11.284;2023-12-28T11:49:37;45.10;;;31.10;;
5191;SDS011;2615;44.524;11.284;2023-12-28T11:52:08;37.77;;;27.03;;
5191;SDS011;2615;44.524;11.284;2023-12-28T11:54:38;36.60;;;26.13;;
5191;SDS011;2615;44.524;11.284;2023-12-28T11:57:16;46.63;;;28.13;;
5191;SDS011;2615;44.524;11.284;2023-12-28T11:59:44;39.60;;;27.00;;
5191;SDS011;2615;44.524;11.284;2023-12-28T12:02:13;38.63;;;26.17;;
5191;SDS011;2615;44.524;11.284;2023-12-28T12:04:41;33.97;;;24.67;;
5191;SDS011;2615;44.524;11.284;2023-12-28T12:07:12;41.70;;;25.83;;
5191;SDS011;2615;44.524;11.284;2023-12-28T12:09:40;35.93;;;26.13;;
5191;SDS011;2615;44.524;11.284;2023-12-28T12:12:09;42.20;;;27.07;;
5191;SDS011;2615;44.524;11.284;2023-12-28T12:14:37;37.27;;;26.00;;
5191;SDS011;2615;44.524;11.284;2023-12-28T12:17:07;36.93;;;25.67;;
5191;SDS011;2615;44.524;11.284;2023-12-28T12:19:35;33.87;;;25.47;;
5191;SDS011;2615;44.524;11.284;2023-12-28T12:22:03;39.60;;;27.63;;
5191;SDS011;2615;44.524;11.284;2023-12-28T12:24:32;36.30;;;27.27;;
5191;SDS011;2615;44.524;11.284;2023-12-28T12:27:03;40.00;;;27.60;;
5191;SDS011;2615;44.524;11.284;2023-12-28T12:29:31;55.90;;;26.77;;
5191;SDS011;2615;44.524;11.284;2023-12-28T12:32:00;33.13;;;26.30;;
5191;SDS011;2615;44.524;11.284;2023-12-28T12:34:29;31.30;;;26.07;;
5191;SDS011;2615;44.524;11.284;2023-12-28T12:36:57;34.93;;;24.97;;
5191;SDS011;2615;44.524;11.284;2023-12-28T12:39:26;33.80;;;25.40;;
5191;SDS011;2615;44.524;11.284;2023-12-28T12:41:56;33.07;;;26.23;;
5191;SDS011;2615;44.524;11.284;2023-12-28T12:44:24;33.60;;;26.27;;
5191;SDS011;2615;44.524;11.284;2023-12-28T12:46:58;34.80;;;26.30;;
5191;SDS011;2615;44.524;11.284;2023-12-28T12:49:27;30.23;;;25.47;;
5191;SDS011;2615;44.524;11.284;2023-12-28T12:51:55;38.23;;;29.33;;
5191;SDS011;2615;44.524;11.284;2023-12-28T12:54:25;28.10;;;24.03;;
5191;SDS011;2615;44.524;11.284;2023-12-28T12:56:55;31.70;;;26.77;;
5191;SDS011;2615;44.524;11.284;2023-12-28T12:59:25;31.33;;;26.80;;
5191;SDS011;2615;44.524;11.284;2023-12-28T13:01:53;30.77;;;24.73;;
5191;SDS011;2615;44.524;11.284;2023-12-28T13:04:21;34.43;;;25.20;;
5191;SDS011;2615;44.524;11.284;2023-12-28T13:06:50;33.93;;;24.27;;
5191;SDS011;2615;44.524;11.284;2023-12-28T13:09:18;31.30;;;26.03;;
5191;SDS011;2615;44.524;11.284;2023-12-28T13:11:46;31.83;;;25.97;;
5191;SDS011;2615;44.524;11.284;2023-12-28T13:14:18;36.53;;;25.13;;
5191;SDS011;2615;44.524;11.284;2023-12-28T13:16:47;37.10;;;28.90;;
5191;SDS011;2615;44.524;11.284;2023-12-28T13:19:24;39.27;;;28.27;;
5191;SDS011;2615;44.524;11.284;2023-12-28T13:21:52;38.17;;;26.60;;
5191;SDS011;2615;44.524;11.284;2023-12-28T13:24:20;34.40;;;26.83;;
5191;SDS011;2615;44.524;11.284;2023-12-28T13:26:49;33.63;;;26.50;;
5191;SDS011;2615;44.524;11.284;2023-12-28T13:29:18;37.23;;;26.77;;
5191;SDS011;2615;44.524;11.284;2023-12-28T13:31:46;31.00;;;25.90;;
5191;SDS011;2615;44.524;11.284;2023-12-28T13:34:16;38.37;;;28.80;;
5191;SDS011;2615;44.524;11.284;2023-12-28T13:36:45;34.67;;;27.07;;
5191;SDS011;2615;44.524;11.284;2023-12-28T13:39:14;37.23;;;27.90;;
5191;SDS011;2615;44.524;11.284;2023-12-28T13:41:44;37.47;;;27.93;;
5191;SDS011;2615;44.524;11.284;2023-12-28T13:44:12;36.90;;;30.13;;
5191;SDS011;2615;44.524;11.284;2023-12-28T13:46:41;39.30;;;28.97;;
5191;SDS011;2615;44.524;11.284;2023-12-28T13:49:09;38.23;;;29.20;;
5191;SDS011;2615;44.524;11.284;2023-12-28T13:51:38;39.40;;;28.30;;
5191;SDS011;2615;44.524;11.284;2023-12-28T13:54:06;40.73;;;27.93;;
5191;SDS011;2615;44.524;11.284;2023-12-28T13:56:34;41.27;;;30.37;;
5191;SDS011;2615;44.524;11.284;2023-12-28T13:59:02;40.47;;;30.13;;
5191;SDS011;2615;44.524;11.284;2023-12-28T14:01:30;35.90;;;28.90;;
5191;SDS011;2615;44.524;11.284;2023-12-28T14:04:00;37.93;;;29.33;;
5191;SDS011;2615;44.524;11.284;2023-12-28T14:06:29;36.27;;;30.63;;
5191;SDS011;2615;44.524;11.284;2023-12-28T14:08:58;38.00;;;28.53;;
5191;SDS011;2615;44.524;11.284;2023-12-28T14:11:26;38.27;;;28.70;;
5191;SDS011;2615;44.524;11.284;2023-12-28T14:13:54;39.80;;;28.73;;
5191;SDS011;2615;44.524;11.284;2023-12-28T14:16:23;36.53;;;28.13;;
5191;SDS011;2615;44.524;11.284;2023-12-28T14:18:51;38.93;;;27.57;;
5191;SDS011;2615;44.524;11.284;2023-12-28T14:21:21;50.17;;;29.60;;
5191;SDS011;2615;44.524;11.284;2023-12-28T14:23:50;37.10;;;28.77;;
5191;SDS011;2615;44.524;11.284;2023-12-28T14:26:19;45.00;;;28.67;;
5191;SDS011;2615;44.524;11.284;2023-12-28T14:28:49;43.37;;;28.60;;
5191;SDS011;2615;44.524;11.284;2023-12-28T14:31:17;48.27;;;28.17;;
5191;SDS011;2615;44.524;11.284;2023-12-28T14:33:46;46.93;;;31.03;;
5191;SDS011;2615;44.524;11.284;2023-12-28T14:36:19;40.97;;;27.70;;
5191;SDS011;2615;44.524;11.284;2023-12-28T14:38:53;37.07;;;27.67;;
5191;SDS011;2615;44.524;11.284;2023-12-28T14:41:22;43.90;;;29.23;;
5191;SDS011;2615;44.524;11.284;2023-12-28T14:43:50;45.93;;;28.70;;
5191;SDS011;2615;44.524;11.284;2023-12-28T14:46:18;43.87;;;28.53;;
5191;SDS011;2615;44.524;11.284;2023-12-28T14:48:46;49.17;;;27.80;;
5191;SDS011;2615;44.524;11.284;2023-12-28T14:51:14;34.43;;;26.20;;
5191;SDS011;2615;44.524;11.284;2023-12-28T14:53:44;35.83;;;28.47;;
5191;SDS011;2615;44.524;11.284;2023-12-28T14:56:13;46.27;;;29.77;;